sensor_id;sensor_type;location;lat;lon;timestamp;pressure;altitude;pressure_sealevel;temperature;humidity
7966;BME280;4028;43.272;26.932;2023-12-20T00:01:18;99463.47;;;4.90;100.00
7966;BME280;4028;43.272;26.932;2023-12-20T00:03:44;99462.75;;;5.01;100.00
7966;BME280;4028;43.272;26.932;2023-12-20T00:06:09;99459.81;;;4.93;100.00
7966;BME280;4028;43.272;26.932;2023-12-20T00:08:35;99461.53;;;4.80;100.00
7966;BME280;4028;43.272;26.932;2023-12-20T00:11:01;99459.13;;;4.77;100.00
7966;BME280;4028;43.272;26.932;2023-12-20T00:13:26;99460.06;;;4.76;100.00
7966;BME280;4028;43.272;26.932;2023-12-20T00:15:52;99452.88;;;4.65;100.00
7966;BME280;4028;43.272;26.932;2023-12-20T00:18:17;99454.47;;;4.67;100.00
7966;BME280;4028;43.272;26.932;2023-12-20T00:20:42;99446.81;;;4.64;100.00
7966;BME280;4028;43.272;26.932;2023-12-20T00:23:08;99446.78;;;4.52;100.00
7966;BME280;4028;43.272;26.932;2023-12-20T00:25:34;99444.44;;;4.47;100.00
7966;BME280;4028;43.272;26.932;2023-12-20T00:28:00;99448.19;;;4.43;100.00
7966;BME280;4028;43.272;26.932;2023-12-20T00:30:26;99449.22;;;4.40;100.00
7966;BME280;4028;43.272;26.932;2023-12-20T00:32:51;99453.44;;;4.43;100.00
7966;BME280;4028;43.272;26.932;2023-12-20T00:35:17;99407.75;;;4.20;100.00
7966;BME280;4028;43.272;26.932;2023-12-20T00:37:43;99440.69;;;4.51;100.00
7966;BME280;4028;43.272;26.932;2023-12-20T00:40:09;99435.03;;;4.57;100.00
7966;BME280;4028;43.272;26.932;2023-12-20T00:42:34;99435.78;;;4.59;100.00
7966;BME280;4028;43.272;26.932;2023-12-20T00:45:01;99433.56;;;4.53;100.00
7966;BME280;4028;43.272;26.932;2023-12-20T00:47:26;99425.59;;;4.55;100.00
7966;BME280;4028;43.272;26.932;2023-12-20T00:49:52;99426.63;;;4.52;100.00
7966;BME280;4028;43.272;26.932;2023-12-20T00:52:18;99422.13;;;4.54;100.00
7966;BME280;4028;43.272;26.932;2023-12-20T00:54:44;99416.25;;;4.51;100.00
7966;BME280;4028;43.272;26.932;2023-12-20T00:57:09;99411.25;;;4.60;100.00
7966;BME280;4028;43.272;26.932;2023-12-20T00:59:35;99407.94;;;4.44;100.00
7966;BME280;4028;43.272;26.932;2023-12-20T01:02:01;99406.84;;;4.34;100.00
7966;BME280;4028;43.272;26.932;2023-12-20T01:04:26;99398.72;;;4.24;100.00
7966;BME280;4028;43.272;26.932;2023-12-20T01:06:52;99400.78;;;4.33;100.00
7966;BME280;4028;43.272;26.932;2023-12-20T01:09:18;99391.13;;;4.34;100.00
7966;BME280;4028;43.272;26.932;2023-12-20T01:11:44;99368.25;;;4.23;100.00
7966;BME280;4028;43.272;26.932;2023-12-20T01:14:09;99362.91;;;4.25;100.00
7966;BME280;4028;43.272;26.932;2023-12-20T01:16:35;99387.47;;;4.36;100.00
7966;BME280;4028;43.272;26.932;2023-12-20T01:19:00;99375.94;;;4.39;100.00
7966;BME280;4028;43.272;26.932;2023-12-20T01:21:26;99376.53;;;4.30;100.00
7966;BME280;4028;43.272;26.932;2023-12-20T01:23:51;99368.53;;;4.18;100.00
7966;BME280;4028;43.272;26.932;2023-12-20T01:26:16;99353.63;;;4.06;100.00
7966;BME280;4028;43.272;26.932;2023-12-20T01:28:42;99357.63;;;4.12;100.00
7966;BME280;4028;43.272;26.932;2023-12-20T01:31:08;99353.50;;;4.08;100.00
7966;BME280;4028;43.272;26.932;2023-12-20T01:33:34;99346.63;;;4.20;100.00
7966;BME280;4028;43.272;26.932;2023-12-20T01:36:00;99323.56;;;4.12;100.00
7966;BME280;4028;43.272;26.932;2023-12-20T01:38:25;99346.44;;;4.23;100.00
7966;BME280;4028;43.272;26.932;2023-12-20T01:40:51;99330.16;;;4.05;100.00
7966;BME280;4028;43.272;26.932;2023-12-20T01:43:16;99270.88;;;3.62;100.00
7966;BME280;4028;43.272;26.932;2023-12-20T01:45:42;99332.66;;;4.06;100.00
7966;BME280;4028;43.272;26.932;2023-12-20T01:48:08;99329.09;;;4.07;100.00
7966;BME280;4028;43.272;26.932;2023-12-20T01:50:35;99320.22;;;4.10;100.00
7966;BME280;4028;43.272;26.932;2023-12-20T01:53:02;99318.59;;;4.22;100.00
7966;BME280;4028;43.272;26.932;2023-12-20T01:55:30;99317.59;;;4.10;100.00
7966;BME280;4028;43.272;26.932;2023-12-20T01:57:57;99319.69;;;4.05;100.00
7966;BME280;4028;43.272;26.932;2023-12-20T02:00:23;99279.34;;;3.80;100.00
7966;BME280;4028;43.272;26.932;2023-12-20T02:02:53;99309.13;;;3.92;100.00
7966;BME280;4028;43.272;26.932;2023-12-20T02:05:21;99301.09;;;3.95;100.00
7966;BME280;4028;43.272;26.932;2023-12-20T02:07:46;99298.25;;;3.98;100.00
7966;BME280;4028;43.272;26.932;2023-12-20T02:10:12;99303.84;;;4.06;100.00
7966;BME280;4028;43.272;26.932;2023-12-20T02:12:38;99284.69;;;4.06;100.00
7966;BME280;4028;43.272;26.932;2023-12-20T02:15:04;99290.13;;;4.03;100.00
7966;BME280;4028;43.272;26.932;2023-12-20T02:17:31;99280.28;;;4.06;100.00
7966;BME280;4028;43.272;26.932;2023-12-20T02:19:57;99271.22;;;3.85;100.00
7966;BME280;4028;43.272;26.932;2023-12-20T02:22:22;99260.53;;;3.88;100.00
7966;BME280;4028;43.272;26.932;2023-12-20T02:24:48;99271.53;;;3.93;100.00
7966;BME280;4028;43.272;26.932;2023-12-20T02:27:15;99239.00;;;3.70;100.00
7966;BME280;4028;43.272;26.932;2023-12-20T02:29:43;99265.59;;;3.77;100.00
7966;BME280;4028;43.272;26.932;2023-12-20T02:32:08;99254.16;;;3.65;100.00
7966;BME280;4028;43.272;26.932;2023-12-20T02:34:34;99255.66;;;3.69;100.00
7966;BME280;4028;43.272;26.932;2023-12-20T02:36:59;99252.81;;;3.72;100.00
7966;BME280;4028;43.272;26.932;2023-12-20T02:39:25;99242.63;;;3.68;100.00
7966;BME280;4028;43.272;26.932;2023-12-20T02:41:50;99158.25;;;3.37;100.00
7966;BME280;4028;43.272;26.932;2023-12-20T02:44:16;99144.84;;;3.29;100.00
7966;BME280;4028;43.272;26.932;2023-12-20T02:46:41;99247.84;;;3.82;100.00
7966;BME280;4028;43.272;26.932;2023-12-20T02:49:07;99161.13;;;3.20;100.00
7966;BME280;4028;43.272;26.932;2023-12-20T02:51:32;99242.94;;;3.63;100.00
7966;BME280;4028;43.272;26.932;2023-12-20T02:53:58;99242.75;;;3.66;100.00
7966;BME280;4028;43.272;26.932;2023-12-20T02:56:23;99243.03;;;3.61;100.00
7966;BME280;4028;43.272;26.932;2023-12-20T02:58:49;99240.97;;;3.67;100.00
7966;BME280;4028;43.272;26.932;2023-12-20T03:01:14;99241.88;;;3.80;100.00
7966;BME280;4028;43.272;26.932;2023-12-20T03:03:40;99226.78;;;3.83;100.00
7966;BME280;4028;43.272;26.932;2023-12-20T03:06:05;99210.06;;;3.59;100.00
7966;BME280;4028;43.272;26.932;2023-12-20T03:08:31;99242.56;;;3.69;100.00
7966;BME280;4028;43.272;26.932;2023-12-20T03:10:56;99229.00;;;3.62;100.00
7966;BME280;4028;43.272;26.932;2023-12-20T03:13:23;99226.38;;;3.62;100.00
7966;BME280;4028;43.272;26.932;2023-12-20T03:15:49;99230.22;;;3.71;100.00
7966;BME280;4028;43.272;26.932;2023-12-20T03:18:14;99231.88;;;3.72;100.00
7966;BME280;4028;43.272;26.932;2023-12-20T03:20:40;99231.25;;;3.69;100.00
7966;BME280;4028;43.272;26.932;2023-12-20T03:23:06;99221.56;;;3.83;100.00
7966;BME280;4028;43.272;26.932;2023-12-20T03:25:32;99223.28;;;3.70;100.00
7966;BME280;4028;43.272;26.932;2023-12-20T03:27:57;99222.75;;;3.65;100.00
7966;BME280;4028;43.272;26.932;2023-12-20T03:30:23;99224.28;;;3.55;100.00
7966;BME280;4028;43.272;26.932;2023-12-20T03:32:48;99195.97;;;3.47;100.00
7966;BME280;4028;43.272;26.932;2023-12-20T03:35:14;99208.84;;;3.64;100.00
7966;BME280;4028;43.272;26.932;2023-12-20T03:37:39;99206.94;;;3.67;100.00
7966;BME280;4028;43.272;26.932;2023-12-20T03:40:05;99204.22;;;3.68;100.00
7966;BME280;4028;43.272;26.932;2023-12-20T03:42:31;99201.16;;;3.61;100.00
7966;BME280;4028;43.272;26.932;2023-12-20T03:44:56;99197.13;;;3.70;100.00
7966;BME280;4028;43.272;26.932;2023-12-20T03:47:22;99192.63;;;3.72;100.00
7966;BME280;4028;43.272;26.932;2023-12-20T03:49:47;99187.78;;;3.66;100.00
7966;BME280;4028;43.272;26.932;2023-12-20T03:52:13;99179.47;;;3.74;100.00
7966;BME280;4028;43.272;26.932;2023-12-20T03:54:38;99179.63;;;3.71;100.00
7966;BME280;4028;43.272;26.932;2023-12-20T03:57:04;99175.13;;;3.73;100.00
7966;BME280;4028;43.272;26.932;2023-12-20T03:59:30;99176.13;;;3.57;100.00
7966;BME280;4028;43.272;26.932;2023-12-20T04:01:55;99166.66;;;3.42;100.00
7966;BME280;4028;43.272;26.932;2023-12-20T04:04:21;99166.09;;;3.37;100.00
7966;BME280;4028;43.272;26.932;2023-12-20T04:06:46;99169.31;;;3.28;100.00
7966;BME280;4028;43.272;26.932;2023-12-20T04:09:12;99169.88;;;3.33;100.00
7966;BME280;4028;43.272;26.932;2023-12-20T04:11:37;99162.38;;;3.41;100.00
7966;BME280;4028;43.272;26.932;2023-12-20T04:14:03;99155.38;;;3.27;100.00
7966;BME280;4028;43.272;26.932;2023-12-20T04:16:30;99126.75;;;3.11;100.00
7966;BME280;4028;43.272;26.932;2023-12-20T04:18:55;99142.31;;;3.27;100.00
7966;BME280;4028;43.272;26.932;2023-12-20T04:21:21;99151.66;;;3.31;100.00
7966;BME280;4028;43.272;26.932;2023-12-20T04:23:46;99151.94;;;3.27;100.00
7966;BME280;4028;43.272;26.932;2023-12-20T04:26:12;99147.09;;;3.21;100.00
7966;BME280;4028;43.272;26.932;2023-12-20T04:28:37;99149.94;;;3.18;100.00
7966;BME280;4028;43.272;26.932;2023-12-20T04:31:03;99145.00;;;3.13;100.00
7966;BME280;4028;43.272;26.932;2023-12-20T04:33:28;99142.44;;;3.11;100.00
7966;BME280;4028;43.272;26.932;2023-12-20T04:35:54;99141.53;;;3.12;100.00
7966;BME280;4028;43.272;26.932;2023-12-20T04:38:19;99140.03;;;3.08;100.00
7966;BME280;4028;43.272;26.932;2023-12-20T04:40:45;99136.31;;;3.12;100.00
7966;BME280;4028;43.272;26.932;2023-12-20T04:43:10;99143.75;;;3.19;100.00
7966;BME280;4028;43.272;26.932;2023-12-20T04:45:36;99138.25;;;3.23;100.00
7966;BME280;4028;43.272;26.932;2023-12-20T04:48:02;99139.69;;;3.27;100.00
7966;BME280;4028;43.272;26.932;2023-12-20T04:50:28;99140.03;;;3.08;100.00
7966;BME280;4028;43.272;26.932;2023-12-20T04:52:53;99141.91;;;3.06;100.00
7966;BME280;4028;43.272;26.932;2023-12-20T04:55:19;99145.84;;;2.99;100.00
7966;BME280;4028;43.272;26.932;2023-12-20T04:57:44;99131.69;;;3.16;100.00
7966;BME280;4028;43.272;26.932;2023-12-20T05:00:10;99134.56;;;3.26;100.00
7966;BME280;4028;43.272;26.932;2023-12-20T05:02:36;99132.81;;;3.12;100.00
7966;BME280;4028;43.272;26.932;2023-12-20T05:05:02;99124.00;;;3.27;100.00
7966;BME280;4028;43.272;26.932;2023-12-20T05:07:27;99111.19;;;3.10;100.00
7966;BME280;4028;43.272;26.932;2023-12-20T05:09:53;99118.41;;;3.33;100.00
7966;BME280;4028;43.272;26.932;2023-12-20T05:12:19;99083.81;;;3.16;100.00
7966;BME280;4028;43.272;26.932;2023-12-20T05:14:45;99122.91;;;3.17;100.00
7966;BME280;4028;43.272;26.932;2023-12-20T05:17:11;99120.31;;;3.17;100.00
7966;BME280;4028;43.272;26.932;2023-12-20T05:19:36;99119.16;;;3.21;100.00
7966;BME280;4028;43.272;26.932;2023-12-20T05:22:02;99086.16;;;3.06;100.00
7966;BME280;4028;43.272;26.932;2023-12-20T05:24:28;99123.59;;;3.06;100.00
7966;BME280;4028;43.272;26.932;2023-12-20T05:26:53;99117.09;;;2.99;100.00
7966;BME280;4028;43.272;26.932;2023-12-20T05:29:19;99117.47;;;3.07;100.00
7966;BME280;4028;43.272;26.932;2023-12-20T05:31:44;99104.84;;;3.00;100.00
7966;BME280;4028;43.272;26.932;2023-12-20T05:34:10;99107.09;;;2.92;100.00
7966;BME280;4028;43.272;26.932;2023-12-20T05:36:36;99108.03;;;2.91;100.00
7966;BME280;4028;43.272;26.932;2023-12-20T05:39:02;99114.22;;;2.90;100.00
7966;BME280;4028;43.272;26.932;2023-12-20T05:41:29;99112.44;;;2.90;100.00
7966;BME280;4028;43.272;26.932;2023-12-20T05:43:54;99116.91;;;3.02;100.00
7966;BME280;4028;43.272;26.932;2023-12-20T05:46:20;99106.34;;;3.04;100.00
7966;BME280;4028;43.272;26.932;2023-12-20T05:48:46;99115.97;;;3.03;100.00
7966;BME280;4028;43.272;26.932;2023-12-20T05:51:12;99126.13;;;3.08;100.00
7966;BME280;4028;43.272;26.932;2023-12-20T05:53:41;99110.63;;;3.05;100.00
7966;BME280;4028;43.272;26.932;2023-12-20T05:56:06;99114.75;;;2.95;100.00
7966;BME280;4028;43.272;26.932;2023-12-20T05:58:33;99098.72;;;2.86;100.00
7966;BME280;4028;43.272;26.932;2023-12-20T06:00:59;99115.31;;;3.00;100.00
7966;BME280;4028;43.272;26.932;2023-12-20T06:03:24;99116.00;;;3.16;100.00
7966;BME280;4028;43.272;26.932;2023-12-20T06:05:49;99114.16;;;3.18;100.00
7966;BME280;4028;43.272;26.932;2023-12-20T06:08:15;99123.16;;;3.27;100.00
7966;BME280;4028;43.272;26.932;2023-12-20T06:10:40;99113.72;;;3.38;100.00
7966;BME280;4028;43.272;26.932;2023-12-20T06:13:06;99074.81;;;3.20;100.00
7966;BME280;4028;43.272;26.932;2023-12-20T06:15:32;99108.38;;;3.40;100.00
7966;BME280;4028;43.272;26.932;2023-12-20T06:17:58;99105.66;;;3.42;100.00
7966;BME280;4028;43.272;26.932;2023-12-20T06:20:23;99101.59;;;3.50;100.00
7966;BME280;4028;43.272;26.932;2023-12-20T06:22:50;99105.94;;;3.64;100.00
7966;BME280;4028;43.272;26.932;2023-12-20T06:25:16;99101.91;;;3.85;100.00
7966;BME280;4028;43.272;26.932;2023-12-20T06:27:42;99098.75;;;3.93;100.00
7966;BME280;4028;43.272;26.932;2023-12-20T06:30:07;99093.72;;;4.03;100.00
7966;BME280;4028;43.272;26.932;2023-12-20T06:32:34;99092.25;;;3.99;100.00
7966;BME280;4028;43.272;26.932;2023-12-20T06:35:00;99083.78;;;3.95;100.00
7966;BME280;4028;43.272;26.932;2023-12-20T06:37:26;99030.38;;;3.85;100.00
7966;BME280;4028;43.272;26.932;2023-12-20T06:39:51;99073.41;;;4.19;100.00
7966;BME280;4028;43.272;26.932;2023-12-20T06:42:16;99088.31;;;4.31;100.00
7966;BME280;4028;43.272;26.932;2023-12-20T06:44:42;99080.22;;;4.34;100.00
7966;BME280;4028;43.272;26.932;2023-12-20T06:47:09;99078.31;;;4.49;100.00
7966;BME280;4028;43.272;26.932;2023-12-20T06:49:34;99080.50;;;4.55;100.00
7966;BME280;4028;43.272;26.932;2023-12-20T06:52:00;99090.03;;;4.69;100.00
7966;BME280;4028;43.272;26.932;2023-12-20T06:54:25;99085.38;;;4.85;100.00
7966;BME280;4028;43.272;26.932;2023-12-20T06:56:50;99073.09;;;4.86;100.00
7966;BME280;4028;43.272;26.932;2023-12-20T06:59:16;99081.56;;;5.02;100.00
7966;BME280;4028;43.272;26.932;2023-12-20T07:01:41;99079.31;;;5.09;100.00
7966;BME280;4028;43.272;26.932;2023-12-20T07:04:08;99065.03;;;5.13;100.00
7966;BME280;4028;43.272;26.932;2023-12-20T07:06:34;99067.84;;;5.22;100.00
7966;BME280;4028;43.272;26.932;2023-12-20T07:08:59;99063.13;;;5.39;100.00
7966;BME280;4028;43.272;26.932;2023-12-20T07:11:25;99061.25;;;5.52;100.00
7966;BME280;4028;43.272;26.932;2023-12-20T07:13:51;99056.19;;;5.73;100.00
7966;BME280;4028;43.272;26.932;2023-12-20T07:16:16;99047.13;;;6.01;100.00
7966;BME280;4028;43.272;26.932;2023-12-20T07:18:42;99049.03;;;6.21;100.00
7966;BME280;4028;43.272;26.932;2023-12-20T07:21:07;99048.34;;;6.31;100.00
7966;BME280;4028;43.272;26.932;2023-12-20T07:23:33;99047.84;;;6.37;100.00
7966;BME280;4028;43.272;26.932;2023-12-20T07:25:59;99047.97;;;6.46;100.00
7966;BME280;4028;43.272;26.932;2023-12-20T07:28:24;99017.75;;;6.41;100.00
7966;BME280;4028;43.272;26.932;2023-12-20T07:30:50;99034.94;;;6.67;100.00
7966;BME280;4028;43.272;26.932;2023-12-20T07:33:15;99034.78;;;6.80;100.00
7966;BME280;4028;43.272;26.932;2023-12-20T07:35:41;99024.13;;;6.93;100.00
7966;BME280;4028;43.272;26.932;2023-12-20T07:38:06;99020.03;;;7.00;100.00
7966;BME280;4028;43.272;26.932;2023-12-20T07:40:32;99013.44;;;7.06;100.00
7966;BME280;4028;43.272;26.932;2023-12-20T07:42:57;99013.41;;;7.17;100.00
7966;BME280;4028;43.272;26.932;2023-12-20T07:45:23;99009.75;;;7.29;100.00
7966;BME280;4028;43.272;26.932;2023-12-20T07:47:49;99012.91;;;7.23;100.00
7966;BME280;4028;43.272;26.932;2023-12-20T07:50:15;98990.09;;;7.12;100.00
7966;BME280;4028;43.272;26.932;2023-12-20T07:52:41;99006.28;;;7.28;100.00
7966;BME280;4028;43.272;26.932;2023-12-20T07:55:07;99012.47;;;7.39;100.00
7966;BME280;4028;43.272;26.932;2023-12-20T07:57:32;99014.06;;;7.30;100.00
7966;BME280;4028;43.272;26.932;2023-12-20T07:59:58;99003.81;;;7.27;100.00
7966;BME280;4028;43.272;26.932;2023-12-20T08:02:23;99002.47;;;7.33;100.00
7966;BME280;4028;43.272;26.932;2023-12-20T08:04:49;99005.53;;;7.38;100.00
7966;BME280;4028;43.272;26.932;2023-12-20T08:07:14;99013.38;;;7.49;100.00
7966;BME280;4028;43.272;26.932;2023-12-20T08:09:39;98998.03;;;7.54;100.00
7966;BME280;4028;43.272;26.932;2023-12-20T08:12:05;99001.94;;;7.60;100.00
7966;BME280;4028;43.272;26.932;2023-12-20T08:14:31;99001.75;;;7.72;100.00
7966;BME280;4028;43.272;26.932;2023-12-20T08:16:56;98997.94;;;7.86;100.00
7966;BME280;4028;43.272;26.932;2023-12-20T08:19:22;98988.69;;;7.92;100.00
7966;BME280;4028;43.272;26.932;2023-12-20T08:21:47;98990.44;;;7.81;100.00
7966;BME280;4028;43.272;26.932;2023-12-20T08:24:13;98983.81;;;7.87;100.00
7966;BME280;4028;43.272;26.932;2023-12-20T08:26:38;98975.50;;;7.92;100.00
7966;BME280;4028;43.272;26.932;2023-12-20T08:29:04;98978.00;;;7.93;100.00
7966;BME280;4028;43.272;26.932;2023-12-20T08:31:29;98967.91;;;7.98;100.00
7966;BME280;4028;43.272;26.932;2023-12-20T08:33:55;98965.81;;;7.92;100.00
7966;BME280;4028;43.272;26.932;2023-12-20T08:36:21;98970.09;;;7.93;100.00
7966;BME280;4028;43.272;26.932;2023-12-20T08:38:48;98953.47;;;7.93;100.00
7966;BME280;4028;43.272;26.932;2023-12-20T08:41:15;98943.25;;;7.99;100.00
7966;BME280;4028;43.272;26.932;2023-12-20T08:43:41;98945.41;;;8.15;100.00
7966;BME280;4028;43.272;26.932;2023-12-20T08:46:07;98943.91;;;8.32;100.00
7966;BME280;4028;43.272;26.932;2023-12-20T08:48:35;98937.91;;;8.51;100.00
7966;BME280;4028;43.272;26.932;2023-12-20T08:51:00;98936.84;;;8.92;100.00
7966;BME280;4028;43.272;26.932;2023-12-20T08:53:26;98924.31;;;9.23;100.00
7966;BME280;4028;43.272;26.932;2023-12-20T08:55:52;98912.09;;;9.32;100.00
7966;BME280;4028;43.272;26.932;2023-12-20T08:58:17;98922.56;;;9.71;100.00
7966;BME280;4028;43.272;26.932;2023-12-20T09:00:43;98907.19;;;9.94;100.00
7966;BME280;4028;43.272;26.932;2023-12-20T09:03:09;98904.97;;;10.26;100.00
7966;BME280;4028;43.272;26.932;2023-12-20T09:05:34;98903.34;;;10.43;100.00
7966;BME280;4028;43.272;26.932;2023-12-20T09:08:01;98897.22;;;10.43;100.00
7966;BME280;4028;43.272;26.932;2023-12-20T09:10:26;98894.50;;;10.34;100.00
7966;BME280;4028;43.272;26.932;2023-12-20T09:12:52;98888.88;;;10.37;100.00
7966;BME280;4028;43.272;26.932;2023-12-20T09:15:25;98876.75;;;10.45;100.00
7966;BME280;4028;43.272;26.932;2023-12-20T09:17:50;98879.09;;;10.48;100.00
7966;BME280;4028;43.272;26.932;2023-12-20T09:20:16;98875.22;;;10.42;100.00
7966;BME280;4028;43.272;26.932;2023-12-20T09:22:42;98875.81;;;10.36;100.00
7966;BME280;4028;43.272;26.932;2023-12-20T09:25:08;98866.31;;;10.43;100.00
7966;BME280;4028;43.272;26.932;2023-12-20T09:27:33;98856.88;;;10.40;100.00
7966;BME280;4028;43.272;26.932;2023-12-20T09:29:59;98860.78;;;10.36;100.00
7966;BME280;4028;43.272;26.932;2023-12-20T09:32:24;98850.91;;;10.56;100.00
7966;BME280;4028;43.272;26.932;2023-12-20T09:34:50;98853.78;;;10.81;100.00
7966;BME280;4028;43.272;26.932;2023-12-20T09:37:15;98838.34;;;10.76;100.00
7966;BME280;4028;43.272;26.932;2023-12-20T09:39:41;98837.28;;;10.69;100.00
7966;BME280;4028;43.272;26.932;2023-12-20T09:42:07;98837.16;;;10.71;100.00
7966;BME280;4028;43.272;26.932;2023-12-20T09:44:33;98826.25;;;10.74;100.00
7966;BME280;4028;43.272;26.932;2023-12-20T09:47:02;98830.53;;;10.75;100.00
7966;BME280;4028;43.272;26.932;2023-12-20T09:49:29;98821.50;;;10.77;100.00
7966;BME280;4028;43.272;26.932;2023-12-20T09:51:56;98819.22;;;10.82;100.00
7966;BME280;4028;43.272;26.932;2023-12-20T09:54:22;98817.69;;;11.24;100.00
7966;BME280;4028;43.272;26.932;2023-12-20T09:56:48;98803.19;;;11.70;100.00
7966;BME280;4028;43.272;26.932;2023-12-20T09:59:14;98806.03;;;12.11;98.13
7966;BME280;4028;43.272;26.932;2023-12-20T10:01:40;98797.81;;;12.55;90.48
7966;BME280;4028;43.272;26.932;2023-12-20T10:04:08;98789.53;;;12.90;82.69
7966;BME280;4028;43.272;26.932;2023-12-20T10:06:46;98786.66;;;13.16;78.12
7966;BME280;4028;43.272;26.932;2023-12-20T10:09:11;98785.97;;;13.31;73.29
7966;BME280;4028;43.272;26.932;2023-12-20T10:11:38;98776.53;;;13.04;68.51
7966;BME280;4028;43.272;26.932;2023-12-20T10:14:05;98774.25;;;12.68;69.19
7966;BME280;4028;43.272;26.932;2023-12-20T10:16:32;98770.63;;;12.44;71.23
7966;BME280;4028;43.272;26.932;2023-12-20T10:18:58;98756.34;;;12.29;73.44
7966;BME280;4028;43.272;26.932;2023-12-20T10:21:25;98756.81;;;12.33;73.82
7966;BME280;4028;43.272;26.932;2023-12-20T10:23:57;98750.88;;;12.39;70.08
7966;BME280;4028;43.272;26.932;2023-12-20T10:26:24;98745.56;;;12.31;67.76
7966;BME280;4028;43.272;26.932;2023-12-20T10:28:50;98741.41;;;12.20;65.75
7966;BME280;4028;43.272;26.932;2023-12-20T10:33:57;98738.72;;;12.12;67.05
7966;BME280;4028;43.272;26.932;2023-12-20T10:36:23;98737.41;;;12.16;64.42
7966;BME280;4028;43.272;26.932;2023-12-20T10:38:50;98720.84;;;12.14;65.48
7966;BME280;4028;43.272;26.932;2023-12-20T10:41:24;98722.34;;;12.41;66.06
7966;BME280;4028;43.272;26.932;2023-12-20T10:43:54;98714.03;;;12.77;61.61
7966;BME280;4028;43.272;26.932;2023-12-20T10:46:20;98706.97;;;13.08;62.06
7966;BME280;4028;43.272;26.932;2023-12-20T10:48:46;98707.78;;;13.25;60.82
7966;BME280;4028;43.272;26.932;2023-12-20T10:51:15;98697.63;;;13.37;60.41
7966;BME280;4028;43.272;26.932;2023-12-20T10:53:42;98693.56;;;13.57;59.12
7966;BME280;4028;43.272;26.932;2023-12-20T10:56:11;98689.09;;;13.49;60.05
7966;BME280;4028;43.272;26.932;2023-12-20T10:58:42;98687.78;;;13.45;59.93
7966;BME280;4028;43.272;26.932;2023-12-20T11:01:08;98680.47;;;13.47;59.37
7966;BME280;4028;43.272;26.932;2023-12-20T11:03:35;98674.63;;;13.52;60.29
7966;BME280;4028;43.272;26.932;2023-12-20T11:09:00;98663.22;;;13.43;60.76
7966;BME280;4028;43.272;26.932;2023-12-20T11:14:48;98671.59;;;13.24;63.93
7966;BME280;4028;43.272;26.932;2023-12-20T11:17:14;98668.13;;;13.23;63.47
7966;BME280;4028;43.272;26.932;2023-12-20T11:22:24;98656.47;;;13.33;62.57
7966;BME280;4028;43.272;26.932;2023-12-20T11:24:51;98654.13;;;13.30;61.24
7966;BME280;4028;43.272;26.932;2023-12-20T11:27:18;98650.63;;;13.37;62.17
7966;BME280;4028;43.272;26.932;2023-12-20T11:29:51;98650.25;;;13.40;61.20
7966;BME280;4028;43.272;26.932;2023-12-20T11:35:17;98636.97;;;13.40;60.01
7966;BME280;4028;43.272;26.932;2023-12-20T11:37:45;98636.16;;;13.40;59.72
7966;BME280;4028;43.272;26.932;2023-12-20T11:40:15;98632.56;;;13.24;61.15
7966;BME280;4028;43.272;26.932;2023-12-20T11:42:42;98629.44;;;13.21;61.05
7966;BME280;4028;43.272;26.932;2023-12-20T11:45:09;98628.09;;;13.17;61.38
7966;BME280;4028;43.272;26.932;2023-12-20T11:47:35;98618.63;;;13.14;61.42
7966;BME280;4028;43.272;26.932;2023-12-20T11:50:01;98620.47;;;13.22;61.36
7966;BME280;4028;43.272;26.932;2023-12-20T11:52:29;98608.00;;;13.14;61.77
7966;BME280;4028;43.272;26.932;2023-12-20T11:54:54;98580.06;;;12.95;62.34
7966;BME280;4028;43.272;26.932;2023-12-20T11:57:20;98605.34;;;13.14;62.61
7966;BME280;4028;43.272;26.932;2023-12-20T11:59:46;98594.78;;;13.06;64.15
7966;BME280;4028;43.272;26.932;2023-12-20T12:02:12;98563.34;;;12.79;65.21
7966;BME280;4028;43.272;26.932;2023-12-20T12:04:37;98591.84;;;12.93;65.30
7966;BME280;4028;43.272;26.932;2023-12-20T12:07:03;98580.09;;;12.87;65.18
7966;BME280;4028;43.272;26.932;2023-12-20T12:09:29;98583.44;;;12.81;65.99
7966;BME280;4028;43.272;26.932;2023-12-20T12:11:54;98573.00;;;12.80;66.50
7966;BME280;4028;43.272;26.932;2023-12-20T12:14:20;98548.19;;;12.56;67.69
7966;BME280;4028;43.272;26.932;2023-12-20T12:16:46;98565.06;;;12.63;68.34
7966;BME280;4028;43.272;26.932;2023-12-20T12:19:25;98555.84;;;12.43;68.76
7966;BME280;4028;43.272;26.932;2023-12-20T12:22:13;98557.03;;;12.32;71.33
7966;BME280;4028;43.272;26.932;2023-12-20T12:24:43;98550.38;;;12.36;70.46
7966;BME280;4028;43.272;26.932;2023-12-20T12:27:09;98552.53;;;12.33;70.20
7966;BME280;4028;43.272;26.932;2023-12-20T12:29:36;98466.44;;;11.80;70.20
7966;BME280;4028;43.272;26.932;2023-12-20T12:32:05;98550.06;;;12.31;71.52
7966;BME280;4028;43.272;26.932;2023-12-20T12:34:32;98525.88;;;12.26;70.44
7966;BME280;4028;43.272;26.932;2023-12-20T12:36:58;98528.53;;;12.34;71.08
7966;BME280;4028;43.272;26.932;2023-12-20T12:39:24;98530.75;;;12.54;69.47
7966;BME280;4028;43.272;26.932;2023-12-20T12:41:52;98528.72;;;12.64;68.69
7966;BME280;4028;43.272;26.932;2023-12-20T12:44:19;98512.91;;;12.79;67.69
7966;BME280;4028;43.272;26.932;2023-12-20T12:46:48;98496.53;;;12.75;67.25
7966;BME280;4028;43.272;26.932;2023-12-20T12:49:16;98484.78;;;12.69;65.58
7966;BME280;4028;43.272;26.932;2023-12-20T12:51:42;98509.22;;;12.88;67.05
7966;BME280;4028;43.272;26.932;2023-12-20T12:54:08;98444.69;;;12.56;65.79
7966;BME280;4028;43.272;26.932;2023-12-20T12:56:35;98504.72;;;13.27;63.59
7966;BME280;4028;43.272;26.932;2023-12-20T12:59:01;98484.00;;;13.15;63.84
7966;BME280;4028;43.272;26.932;2023-12-20T13:01:26;98497.97;;;13.09;64.00
7966;BME280;4028;43.272;26.932;2023-12-20T13:03:52;98496.56;;;12.98;64.93
7966;BME280;4028;43.272;26.932;2023-12-20T13:06:17;98501.34;;;13.02;63.16
7966;BME280;4028;43.272;26.932;2023-12-20T13:08:43;98503.50;;;12.99;64.01
7966;BME280;4028;43.272;26.932;2023-12-20T13:11:09;98498.50;;;12.73;65.32
7966;BME280;4028;43.272;26.932;2023-12-20T13:13:35;98499.41;;;12.57;67.41
7966;BME280;4028;43.272;26.932;2023-12-20T13:16:00;98505.91;;;12.46;68.92
7966;BME280;4028;43.272;26.932;2023-12-20T13:18:26;98505.94;;;12.38;68.97